Eskdalemuir, United Kingdom
Current Conditions -  °F | °C
As of 4:50 AM on Saturday 20 Dec 2014 (Local Time) from EGOM Reporting Station
Broken Clouds Broken Clouds  
Wind Chill: 28°   Ceiling: 1600
Heat Index: 39°   Visibility: 6mi
Dew Point: 37°   Wind: 25mph
Humidity: 93%   Direction: 260°W
Pressure: 29.88"   Gusts: NA
Location:  55.27°N, 3.18°W
Report Text: EGOM 200450Z AUTO 26022KT 9999 FEW009/// BKN016/// 04/03 Q1012 RERA
Loading
Personal Weather Stations






























Interactive Weather Map New forecast layout! Learn more

10-Day Weather Forecast

Advertisements
Track Severe Weather on mobile